createdAt,value
2017-11-27T00:00:02.170Z,0
2017-11-27T00:00:42.540Z,0
2017-11-27T00:01:23.243Z,0
2017-11-27T00:02:04.149Z,0
2017-11-27T00:02:43.975Z,0
2017-11-27T00:03:24.417Z,0
2017-11-27T00:04:06.865Z,0
2017-11-27T00:04:47.593Z,0
2017-11-27T00:05:28.598Z,0
2017-11-27T00:06:09.004Z,0
2017-11-27T00:06:50.354Z,0
2017-11-27T00:07:30.792Z,0
2017-11-27T00:08:11.205Z,0
2017-11-27T00:08:52.969Z,0
2017-11-27T00:09:33.369Z,0
2017-11-27T00:10:13.779Z,0
2017-11-27T00:10:54.218Z,0
2017-11-27T00:11:34.606Z,0
2017-11-27T00:12:15.655Z,0
2017-11-27T00:12:56.475Z,0
2017-11-27T00:13:37.486Z,0
2017-11-27T00:14:18.517Z,0
2017-11-27T00:16:39.879Z,0
2017-11-27T00:17:20.813Z,0
2017-11-27T00:18:01.284Z,0
2017-11-27T00:18:41.757Z,0
2017-11-27T00:19:22.372Z,0
2017-11-27T00:20:02.993Z,0
2017-11-27T00:20:43.247Z,0
2017-11-27T00:21:23.660Z,0
2017-11-27T00:22:04.476Z,0
2017-11-27T00:22:45.405Z,0
2017-11-27T00:23:26.475Z,0
2017-11-27T00:24:07.251Z,0
2017-11-27T00:24:48.240Z,0
2017-11-27T00:25:29.406Z,0
2017-11-27T00:26:10.716Z,0
2017-11-27T00:26:51.122Z,0
2017-11-27T00:27:32.251Z,0
2017-11-27T00:28:12.739Z,0
2017-11-27T00:28:53.573Z,0
2017-11-27T00:29:34.038Z,0
2017-11-27T00:30:15.578Z,0
2017-11-27T00:30:55.951Z,0
2017-11-27T00:31:36.509Z,0
2017-11-27T00:32:17.012Z,0
2017-11-27T00:32:59.861Z,0
2017-11-27T00:33:41.387Z,0
2017-11-27T00:34:22.273Z,0
2017-11-27T00:35:02.572Z,0
2017-11-27T00:35:44.029Z,0
2017-11-27T00:36:24.500Z,0
2017-11-27T00:37:04.882Z,0
2017-11-27T00:37:45.432Z,0
2017-11-27T00:38:26.287Z,0
2017-11-27T00:39:07.338Z,0
2017-11-27T00:39:47.824Z,0
2017-11-27T00:40:28.841Z,0
2017-11-27T00:41:09.174Z,0
2017-11-27T00:41:49.556Z,0
2017-11-27T00:42:30.485Z,0
2017-11-27T00:43:11.130Z,0
2017-11-27T00:43:51.532Z,0
2017-11-27T00:44:31.979Z,0
2017-11-27T00:45:12.330Z,0
2017-11-27T00:45:53.675Z,0
2017-11-27T00:46:34.170Z,0
2017-11-27T00:47:14.583Z,0
2017-11-27T00:47:55.271Z,0
2017-11-27T00:48:38.417Z,0
2017-11-27T00:49:20.213Z,0
2017-11-27T00:50:00.594Z,0
2017-11-27T00:50:41.024Z,0
2017-11-27T00:51:21.625Z,0
2017-11-27T00:52:02.237Z,0
2017-11-27T00:52:42.413Z,0
2017-11-27T00:53:23.001Z,0
2017-11-27T00:54:03.284Z,0
2017-11-27T00:54:43.741Z,0
2017-11-27T00:55:24.783Z,0
2017-11-27T00:56:05.367Z,0
2017-11-27T00:56:45.736Z,0
2017-11-27T00:57:26.714Z,0
2017-11-27T00:58:07.320Z,0
2017-11-27T00:58:47.779Z,0
2017-11-27T00:59:28.177Z,0
2017-11-27T01:00:08.796Z,0
2017-11-27T01:00:49.298Z,0
2017-11-27T01:01:29.699Z,0
2017-11-27T01:02:10.308Z,0
2017-11-27T01:02:50.679Z,0
2017-11-27T01:03:31.071Z,0
2017-11-27T01:04:11.911Z,0
2017-11-27T01:04:52.455Z,0
2017-11-27T01:05:33.527Z,0
2017-11-27T01:06:14.827Z,0
2017-11-27T01:06:55.162Z,0
2017-11-27T01:07:35.724Z,0
2017-11-27T01:08:16.193Z,0
2017-11-27T01:08:56.581Z,0
2017-11-27T01:09:36.995Z,0
2017-11-27T01:10:17.365Z,0
2017-11-27T01:10:57.902Z,0
2017-11-27T01:11:38.566Z,0
2017-11-27T01:12:18.823Z,0
2017-11-27T01:12:59.387Z,0
2017-11-27T01:13:39.794Z,0
2017-11-27T01:14:20.280Z,0
2017-11-27T01:15:00.717Z,0
2017-11-27T01:15:41.044Z,0
2017-11-27T01:16:21.457Z,0
2017-11-27T01:17:01.945Z,0
2017-11-27T01:17:42.444Z,0
2017-11-27T01:18:22.743Z,0
2017-11-27T01:19:03.131Z,0
2017-11-27T01:19:43.632Z,0
2017-11-27T01:20:24.101Z,0
2017-11-27T01:21:04.447Z,0
2017-11-27T01:21:44.859Z,0
2017-11-27T01:22:25.432Z,0
2017-11-27T01:23:05.651Z,0
2017-11-27T01:23:46.175Z,0
2017-11-27T01:24:26.560Z,0
2017-11-27T01:25:07.104Z,0
2017-11-27T01:25:47.550Z,0
2017-11-27T01:26:27.809Z,0
2017-11-27T01:27:08.241Z,0
2017-11-27T01:27:48.846Z,0
2017-11-27T01:28:29.159Z,0
2017-11-27T01:29:09.532Z,0
2017-11-27T01:29:49.925Z,0
2017-11-27T01:30:30.341Z,0
2017-11-27T01:31:10.726Z,0
2017-11-27T01:31:51.086Z,0
2017-11-27T01:32:31.481Z,0
2017-11-27T01:33:11.965Z,0
2017-11-27T01:33:52.338Z,0
2017-11-27T01:34:32.796Z,0
2017-11-27T01:35:13.246Z,0
2017-11-27T01:35:53.677Z,0
2017-11-27T01:36:34.028Z,0
2017-11-27T01:37:14.412Z,0
2017-11-27T01:37:55.068Z,0
2017-11-27T01:38:35.822Z,0
2017-11-27T01:39:15.897Z,0
2017-11-27T01:39:56.314Z,0
2017-11-27T01:40:36.688Z,0
2017-11-27T01:41:17.158Z,0
2017-11-27T01:41:57.536Z,0
2017-11-27T01:42:37.962Z,0
2017-11-27T01:43:18.470Z,0
2017-11-27T01:43:58.741Z,0
2017-11-27T01:44:39.178Z,0
2017-11-27T01:45:19.615Z,0
2017-11-27T01:46:00.064Z,0
2017-11-27T01:46:40.467Z,0
2017-11-27T01:47:20.945Z,0
2017-11-27T01:48:01.384Z,0
2017-11-27T01:48:42.170Z,0
2017-11-27T01:49:22.486Z,0
2017-11-27T01:50:03.272Z,0
2017-11-27T01:50:43.832Z,0
2017-11-27T01:51:24.405Z,0
2017-11-27T01:52:04.741Z,0
2017-11-27T01:52:45.485Z,0
2017-11-27T01:53:25.984Z,0
2017-11-27T01:54:06.707Z,0
2017-11-27T01:54:47.100Z,0
2017-11-27T01:55:27.512Z,0
2017-11-27T01:56:07.969Z,0
2017-11-27T01:56:48.764Z,0
2017-11-27T01:57:29.410Z,0
2017-11-27T01:58:09.868Z,0
2017-11-27T01:58:50.527Z,0
2017-11-27T01:59:31.274Z,0
2017-11-27T02:00:11.959Z,0
2017-11-27T02:00:52.861Z,0
2017-11-27T02:01:33.171Z,0
2017-11-27T02:02:14.123Z,0
2017-11-27T02:02:54.089Z,0
2017-11-27T02:03:34.848Z,0
2017-11-27T02:04:15.157Z,0
2017-11-27T02:04:59.172Z,0
2017-11-27T02:05:40.131Z,0
2017-11-27T02:06:21.759Z,0
2017-11-27T02:07:02.127Z,0
2017-11-27T02:07:42.511Z,0
2017-11-27T02:08:23.004Z,0
2017-11-27T02:09:03.581Z,0
2017-11-27T02:09:44.023Z,0
2017-11-27T02:10:24.445Z,0
2017-11-27T02:11:05.163Z,0
2017-11-27T02:11:45.609Z,0
2017-11-27T02:12:26.121Z,0
2017-11-27T02:13:06.760Z,0
2017-11-27T02:13:48.005Z,0
2017-11-27T02:14:28.796Z,0
2017-11-27T02:15:09.162Z,0
2017-11-27T02:15:49.577Z,0
2017-11-27T02:16:32.156Z,0
2017-11-27T02:17:12.549Z,0
2017-11-27T02:17:53.891Z,0
2017-11-27T02:18:34.106Z,0
2017-11-27T02:19:14.498Z,0
2017-11-27T02:19:55.857Z,0
2017-11-27T02:20:36.286Z,0
2017-11-27T02:21:18.351Z,0
2017-11-27T02:21:59.231Z,0
2017-11-27T02:22:39.605Z,0
2017-11-27T02:23:20.354Z,0
2017-11-27T02:24:00.676Z,0
2017-11-27T02:24:41.063Z,0
2017-11-27T02:25:21.951Z,0
2017-11-27T02:26:02.358Z,0
2017-11-27T02:26:42.800Z,0
2017-11-27T02:27:23.605Z,0
2017-11-27T02:28:03.865Z,0
2017-11-27T02:28:44.672Z,0
2017-11-27T02:29:26.125Z,0
2017-11-27T02:30:06.478Z,0
2017-11-27T02:30:47.055Z,0
2017-11-27T02:31:27.406Z,0
2017-11-27T02:32:07.863Z,0
2017-11-27T02:32:48.282Z,0
2017-11-27T02:33:29.504Z,0
2017-11-27T02:34:09.853Z,0
2017-11-27T02:34:50.306Z,0
2017-11-27T02:35:31.137Z,0
2017-11-27T02:36:12.117Z,0
2017-11-27T02:36:52.365Z,0
2017-11-27T02:37:32.792Z,0
2017-11-27T02:38:13.670Z,0
2017-11-27T02:38:54.072Z,0
2017-11-27T02:39:34.919Z,0
2017-11-27T02:40:15.595Z,0
2017-11-27T02:40:55.997Z,0
2017-11-27T02:41:36.639Z,0
2017-11-27T02:42:16.867Z,0
2017-11-27T02:42:57.345Z,0
2017-11-27T02:43:38.132Z,0
2017-11-27T02:44:18.196Z,0
2017-11-27T02:44:58.723Z,0
2017-11-27T02:45:39.052Z,0
2017-11-27T02:46:19.672Z,0
2017-11-27T02:46:59.991Z,0
2017-11-27T02:47:40.415Z,0
2017-11-27T02:48:21.202Z,0
2017-11-27T02:49:01.671Z,0
2017-11-27T02:49:42.026Z,0
2017-11-27T02:50:22.479Z,0
2017-11-27T02:51:02.912Z,0
2017-11-27T02:51:43.619Z,0
2017-11-27T02:52:24.081Z,0
2017-11-27T02:53:04.285Z,0
2017-11-27T02:53:45.313Z,0
2017-11-27T02:54:25.797Z,0
2017-11-27T02:55:06.174Z,0
2017-11-27T02:55:46.648Z,0
2017-11-27T02:56:27.143Z,0
2017-11-27T02:57:07.499Z,0
2017-11-27T02:57:47.937Z,0
2017-11-27T02:58:28.389Z,0
2017-11-27T02:59:08.710Z,0
2017-11-27T02:59:49.128Z,0
2017-11-27T03:00:29.512Z,0
2017-11-27T03:01:09.887Z,0
2017-11-27T03:01:50.293Z,0
2017-11-27T03:02:30.743Z,0
2017-11-27T03:03:11.166Z,0
2017-11-27T03:03:51.556Z,0
2017-11-27T03:04:31.961Z,0
2017-11-27T03:05:12.995Z,0
2017-11-27T03:05:54.121Z,0
2017-11-27T03:06:34.497Z,0
2017-11-27T03:07:14.908Z,0
2017-11-27T03:07:55.528Z,0
2017-11-27T03:08:35.968Z,0
2017-11-27T03:09:16.336Z,0
2017-11-27T03:09:56.866Z,0
2017-11-27T03:10:37.512Z,0
2017-11-27T03:11:20.166Z,0
2017-11-27T03:12:00.023Z,0
2017-11-27T03:12:40.926Z,0
2017-11-27T03:13:21.324Z,0
2017-11-27T03:14:01.660Z,0
2017-11-27T03:14:42.247Z,0
2017-11-27T03:15:22.459Z,0
2017-11-27T03:16:03.342Z,0
2017-11-27T03:16:43.979Z,0
2017-11-27T03:17:24.272Z,0
2017-11-27T03:18:04.704Z,0
2017-11-27T03:18:45.149Z,0
2017-11-27T03:19:25.559Z,0
2017-11-27T03:20:05.935Z,0
2017-11-27T03:20:46.386Z,0
2017-11-27T03:21:26.757Z,0
2017-11-27T03:22:07.167Z,0
2017-11-27T03:22:47.611Z,0
2017-11-27T03:23:28.162Z,0
2017-11-27T03:24:08.656Z,0
2017-11-27T03:24:49.080Z,0
2017-11-27T03:25:29.437Z,0
2017-11-27T03:26:09.786Z,0
2017-11-27T03:26:50.146Z,0
2017-11-27T03:27:30.553Z,0
2017-11-27T03:28:10.985Z,0
2017-11-27T03:28:51.360Z,0
2017-11-27T03:29:31.910Z,0
2017-11-27T03:30:12.350Z,0
2017-11-27T03:30:53.060Z,0
2017-11-27T03:31:33.517Z,0
2017-11-27T03:32:13.926Z,0
2017-11-27T03:32:54.378Z,0
2017-11-27T03:33:34.853Z,0
2017-11-27T03:34:15.361Z,0
2017-11-27T03:34:55.903Z,0
2017-11-27T03:35:36.142Z,0
2017-11-27T03:36:17.092Z,0
2017-11-27T03:36:58.230Z,0
2017-11-27T03:37:38.165Z,0
2017-11-27T03:38:18.548Z,0
2017-11-27T03:38:59.309Z,0
2017-11-27T03:39:39.618Z,0
2017-11-27T03:40:20.495Z,0
2017-11-27T03:41:00.524Z,0
2017-11-27T03:41:40.919Z,0
2017-11-27T03:42:21.324Z,0
2017-11-27T03:43:01.756Z,0
2017-11-27T03:43:42.157Z,0
2017-11-27T03:44:23.020Z,0
2017-11-27T03:45:03.074Z,0
2017-11-27T03:45:43.511Z,0
2017-11-27T03:46:24.007Z,0
2017-11-27T03:47:04.370Z,0
2017-11-27T03:47:44.809Z,0
2017-11-27T03:48:25.353Z,0
2017-11-27T03:49:06.072Z,0
2017-11-27T03:49:46.329Z,0
2017-11-27T03:50:26.710Z,0
2017-11-27T03:51:07.172Z,0
2017-11-27T03:51:47.739Z,0
2017-11-27T03:52:27.977Z,0
2017-11-27T03:53:08.476Z,0
2017-11-27T03:53:48.965Z,0
2017-11-27T03:54:29.328Z,0
2017-11-27T03:55:09.695Z,0
2017-11-27T03:55:50.166Z,0
2017-11-27T03:56:30.593Z,0
2017-11-27T03:57:11.113Z,0
2017-11-27T03:57:51.425Z,0
2017-11-27T03:58:31.858Z,0
2017-11-27T03:59:12.308Z,0
2017-11-27T03:59:52.627Z,0
2017-11-27T04:00:33.110Z,0
2017-11-27T04:01:13.497Z,0
2017-11-27T04:01:53.877Z,0
2017-11-27T04:41:41.000Z,0
2017-11-27T04:42:19.565Z,0
2017-11-27T04:43:01.597Z,0
2017-11-27T04:43:42.353Z,0
2017-11-27T04:44:22.860Z,0
2017-11-27T04:45:03.771Z,0
2017-11-27T04:45:44.184Z,0
2017-11-27T04:46:24.850Z,0
2017-11-27T04:47:05.256Z,0
2017-11-27T04:47:46.750Z,0
2017-11-27T04:48:27.242Z,0
2017-11-27T04:49:07.870Z,0
2017-11-27T04:49:48.146Z,0
2017-11-27T04:50:28.498Z,0
2017-11-27T04:51:09.008Z,0
2017-11-27T04:51:49.291Z,0
2017-11-27T04:52:30.090Z,0
2017-11-27T04:53:10.959Z,0
2017-11-27T04:53:51.832Z,0
2017-11-27T04:54:32.490Z,0
2017-11-27T04:55:13.191Z,0
2017-11-27T04:55:53.990Z,0
2017-11-27T04:56:34.347Z,0
2017-11-27T04:57:15.649Z,0
2017-11-27T04:57:56.582Z,0
2017-11-27T04:58:36.984Z,0
2017-11-27T04:59:17.359Z,0
2017-11-27T05:00:00.304Z,0
2017-11-27T05:00:42.576Z,0
2017-11-27T05:01:23.073Z,0
2017-11-27T05:02:03.701Z,0
2017-11-27T05:02:44.126Z,0
2017-11-27T05:03:25.059Z,0
2017-11-27T05:04:06.443Z,0
2017-11-27T05:04:46.817Z,0
2017-11-27T05:05:27.246Z,0
2017-11-27T05:06:08.044Z,0
2017-11-27T05:06:48.595Z,0
2017-11-27T05:07:29.490Z,0
2017-11-27T05:08:09.989Z,0
2017-11-27T05:08:50.469Z,0
2017-11-27T05:09:31.023Z,0
2017-11-27T05:10:11.714Z,0
2017-11-27T05:10:52.706Z,0
2017-11-27T05:11:33.257Z,0
2017-11-27T05:12:13.942Z,0
2017-11-27T05:12:55.039Z,0
2017-11-27T05:13:35.481Z,0
2017-11-27T05:14:16.192Z,0
2017-11-27T05:14:57.872Z,0
2017-11-27T05:15:38.288Z,0
2017-11-27T05:16:19.068Z,0
2017-11-27T05:16:59.407Z,0
2017-11-27T05:17:40.401Z,0
2017-11-27T05:18:20.800Z,0
2017-11-27T05:19:01.421Z,0
2017-11-27T05:19:41.793Z,0
2017-11-27T05:20:22.181Z,0
2017-11-27T05:21:03.115Z,0
2017-11-27T05:21:43.691Z,0
2017-11-27T05:22:24.319Z,0
2017-11-27T05:23:04.896Z,0
2017-11-27T05:23:45.636Z,0
2017-11-27T05:24:26.548Z,0
2017-11-27T05:25:07.714Z,0
2017-11-27T05:25:48.952Z,0
2017-11-27T05:26:29.401Z,0
2017-11-27T05:27:10.491Z,0
2017-11-27T05:27:51.469Z,0
2017-11-27T05:28:32.028Z,0
2017-11-27T05:29:13.700Z,0
2017-11-27T05:29:54.248Z,0
2017-11-27T05:30:34.784Z,0
2017-11-27T05:31:15.819Z,0
2017-11-27T05:31:56.652Z,0
2017-11-27T05:32:37.560Z,0
2017-11-27T05:33:18.818Z,0
2017-11-27T05:34:02.431Z,0
2017-11-27T05:34:44.085Z,0
2017-11-27T05:35:24.717Z,0
2017-11-27T05:36:06.397Z,0
2017-11-27T05:36:48.086Z,0
2017-11-27T05:37:28.916Z,0
2017-11-27T05:38:09.772Z,0
2017-11-27T05:38:51.474Z,0
2017-11-27T05:39:31.490Z,0
2017-11-27T05:40:11.860Z,0
2017-11-27T05:40:52.376Z,0
2017-11-27T05:41:33.196Z,0
2017-11-27T05:42:13.454Z,0
2017-11-27T05:42:54.445Z,0
2017-11-27T05:43:35.359Z,0
2017-11-27T05:44:16.181Z,0
2017-11-27T05:44:57.615Z,0
2017-11-27T05:45:38.698Z,0
2017-11-27T05:46:19.484Z,0
2017-11-27T05:46:59.793Z,0
2017-11-27T05:47:40.393Z,0
2017-11-27T05:48:20.813Z,0
2017-11-27T05:49:02.489Z,0
2017-11-27T05:49:44.381Z,0
2017-11-27T05:50:24.762Z,0
2017-11-27T05:51:05.909Z,0
2017-11-27T05:51:47.025Z,0
2017-11-27T05:52:27.658Z,0
2017-11-27T05:53:09.498Z,0
2017-11-27T05:53:50.559Z,0
2017-11-27T05:54:31.548Z,0
2017-11-27T05:55:12.434Z,0
2017-11-27T05:55:53.001Z,0
2017-11-27T05:56:34.012Z,0
2017-11-27T05:57:14.720Z,0
2017-11-27T05:57:55.803Z,0
2017-11-27T05:58:37.042Z,0
2017-11-27T05:59:17.123Z,0
2017-11-27T05:59:59.128Z,0
2017-11-27T06:00:42.025Z,0
2017-11-27T06:01:22.350Z,0
2017-11-27T06:02:02.996Z,0
2017-11-27T06:02:43.863Z,0
2017-11-27T06:03:24.487Z,0
2017-11-27T06:04:05.515Z,0
2017-11-27T06:04:50.012Z,0
2017-11-27T06:05:30.365Z,0
2017-11-27T06:06:10.828Z,0
2017-11-27T06:06:51.341Z,0
2017-11-27T06:07:32.447Z,0
2017-11-27T06:08:13.054Z,0
2017-11-27T06:08:54.333Z,0
2017-11-27T06:09:34.839Z,0
2017-11-27T06:10:16.212Z,0
2017-11-27T06:10:56.879Z,0
2017-11-27T06:11:37.873Z,0
2017-11-27T06:12:18.268Z,0
2017-11-27T06:12:58.932Z,0
2017-11-27T06:13:40.998Z,0
2017-11-27T06:14:21.429Z,0
2017-11-27T06:15:01.974Z,0
2017-11-27T06:15:42.571Z,0
2017-11-27T06:16:23.231Z,0
2017-11-27T06:17:03.680Z,0
2017-11-27T06:17:44.569Z,0
2017-11-27T06:18:25.454Z,0
2017-11-27T06:19:05.899Z,0
2017-11-27T06:19:46.576Z,0
2017-11-27T06:20:29.312Z,0
2017-11-27T06:21:09.789Z,0
2017-11-27T06:21:50.817Z,0
2017-11-27T06:22:30.969Z,0
2017-11-27T06:23:11.664Z,0
2017-11-27T06:23:52.100Z,0
2017-11-27T06:24:33.196Z,0
2017-11-27T06:25:14.201Z,0
2017-11-27T06:25:54.919Z,0
2017-11-27T06:26:36.000Z,0
2017-11-27T06:27:17.237Z,0
2017-11-27T06:27:57.138Z,0
2017-11-27T06:28:37.713Z,0
2017-11-27T06:29:18.460Z,0
2017-11-27T06:29:59.300Z,0
2017-11-27T06:30:39.902Z,0
2017-11-27T06:31:20.797Z,0
2017-11-27T06:32:01.257Z,0
2017-11-27T06:32:42.658Z,0
2017-11-27T06:33:23.076Z,0
2017-11-27T06:34:03.564Z,0
2017-11-27T06:34:44.468Z,0
2017-11-27T06:35:25.391Z,0
2017-11-27T06:36:06.025Z,0
2017-11-27T06:36:46.993Z,0
2017-11-27T06:37:27.320Z,0
2017-11-27T06:38:08.084Z,0
2017-11-27T06:38:48.536Z,0
2017-11-27T06:39:28.934Z,0
2017-11-27T06:40:09.701Z,0
2017-11-27T06:40:50.440Z,0
2017-11-27T06:41:32.134Z,0
2017-11-27T06:42:13.312Z,0
2017-11-27T06:42:55.354Z,0
2017-11-27T06:43:36.230Z,0
2017-11-27T06:44:16.615Z,0
2017-11-27T06:44:57.326Z,0
2017-11-27T06:45:38.908Z,0
2017-11-27T06:46:19.489Z,0
2017-11-27T06:49:29.964Z,0
2017-11-27T06:51:55.287Z,0
2017-11-27T06:54:18.014Z,4
2017-11-27T06:54:59.273Z,4
2017-11-27T06:55:43.960Z,4
2017-11-27T06:56:25.313Z,4
2017-11-27T06:57:10.893Z,0
2017-11-27T06:57:52.891Z,0
2017-11-27T06:58:34.174Z,0
2017-11-27T07:02:20.860Z,4
2017-11-27T07:03:08.170Z,4
2017-11-27T07:03:48.580Z,4
2017-11-27T07:04:29.394Z,8
2017-11-27T07:05:10.502Z,4
2017-11-27T07:05:50.440Z,4
2017-11-27T07:06:30.793Z,8
2017-11-27T07:07:11.284Z,8
2017-11-27T07:07:52.461Z,4
2017-11-27T07:08:32.841Z,4
2017-11-27T07:09:13.568Z,4
2017-11-27T07:09:54.579Z,4
2017-11-27T07:10:38.930Z,4
2017-11-27T07:11:19.280Z,8
2017-11-27T07:12:00.165Z,8
2017-11-27T07:12:40.321Z,8
2017-11-27T07:13:20.895Z,8
2017-11-27T07:14:01.489Z,8
2017-11-27T07:14:42.558Z,8
2017-11-27T07:15:23.510Z,12
2017-11-27T07:16:04.028Z,12
2017-11-27T07:16:44.620Z,12
2017-11-27T07:17:25.032Z,12
2017-11-27T07:18:05.816Z,12
2017-11-27T07:18:46.794Z,12
2017-11-27T07:19:27.218Z,12
2017-11-27T07:20:07.844Z,16
2017-11-27T07:20:49.111Z,12
2017-11-27T07:21:31.655Z,16
2017-11-27T07:22:10.945Z,16
2017-11-27T07:22:52.089Z,16
2017-11-27T07:23:32.445Z,20
2017-11-27T07:24:12.987Z,20
2017-11-27T07:24:53.706Z,20
2017-11-27T07:25:34.656Z,20
2017-11-27T07:26:15.153Z,20
2017-11-27T07:26:57.057Z,20
2017-11-27T07:27:37.379Z,24
2017-11-27T07:28:18.122Z,24
2017-11-27T07:29:01.437Z,24
2017-11-27T07:29:42.209Z,28
2017-11-27T07:30:23.331Z,28
2017-11-27T07:31:04.732Z,28
2017-11-27T07:31:44.840Z,32
2017-11-27T07:32:25.688Z,32
2017-11-27T07:33:06.433Z,32
2017-11-27T07:33:46.893Z,36
2017-11-27T07:34:27.499Z,36
2017-11-27T07:35:08.071Z,40
2017-11-27T07:35:48.932Z,44
2017-11-27T07:36:29.550Z,44
2017-11-27T07:37:10.132Z,48
2017-11-27T07:37:51.839Z,48
2017-11-27T07:38:32.904Z,52
2017-11-27T07:39:13.695Z,56
2017-11-27T07:39:54.324Z,60
2017-11-27T07:40:36.104Z,60
2017-11-27T07:41:15.898Z,60
2017-11-27T07:41:56.674Z,60
2017-11-27T07:42:38.441Z,60
2017-11-27T07:43:19.126Z,60
2017-11-27T07:43:59.914Z,60
2017-11-27T07:44:41.026Z,64
2017-11-27T07:45:21.478Z,64
2017-11-27T07:46:02.045Z,60
2017-11-27T07:46:42.972Z,60
2017-11-27T07:47:24.216Z,64
2017-11-27T07:48:05.281Z,64
2017-11-27T07:48:47.587Z,64
2017-11-27T07:49:27.744Z,60
2017-11-27T07:50:09.992Z,64
2017-11-27T07:50:50.698Z,64
2017-11-27T07:51:32.218Z,68
2017-11-27T07:52:13.742Z,76
2017-11-27T07:52:54.799Z,80
2017-11-27T07:53:36.008Z,84
2017-11-27T07:54:18.786Z,84
2017-11-27T07:54:58.640Z,84
2017-11-27T07:55:39.981Z,84
2017-11-27T07:56:21.257Z,84
2017-11-27T07:57:02.445Z,80
2017-11-27T07:57:42.649Z,80
2017-11-27T07:58:25.262Z,80
2017-11-27T07:59:05.453Z,80
2017-11-27T07:59:49.779Z,80
2017-11-27T08:00:29.460Z,80
2017-11-27T08:01:10.117Z,80
2017-11-27T08:01:50.933Z,80
2017-11-27T08:02:32.148Z,76
2017-11-27T08:03:13.001Z,76
2017-11-27T08:03:53.824Z,76
2017-11-27T08:04:34.678Z,80
2017-11-27T08:05:17.324Z,84
2017-11-27T08:06:00.393Z,88
2017-11-27T08:06:40.688Z,96
2017-11-27T08:07:21.605Z,96
2017-11-27T08:08:02.861Z,100
2017-11-27T08:08:44.341Z,104
2017-11-27T08:09:25.378Z,108
2017-11-27T08:10:05.873Z,112
2017-11-27T08:10:46.569Z,116
2017-11-27T08:11:28.086Z,124
2017-11-27T08:12:08.320Z,124
2017-11-27T08:12:48.890Z,124
2017-11-27T08:13:30.030Z,124
2017-11-27T08:18:00.961Z,156
2017-11-27T08:19:04.024Z,156
2017-11-27T08:24:53.264Z,184
2017-11-27T08:25:34.060Z,176
2017-11-27T08:26:14.501Z,176
2017-11-27T08:26:55.137Z,172
2017-11-27T08:27:37.304Z,176
2017-11-27T08:28:18.631Z,176
2017-11-27T08:28:58.970Z,164
2017-11-27T08:29:39.447Z,152
2017-11-27T08:30:19.857Z,148
2017-11-27T08:31:00.357Z,152
2017-11-27T08:31:40.790Z,152
2017-11-27T08:32:21.190Z,156
2017-11-27T08:33:01.756Z,156
2017-11-27T08:33:42.191Z,160
2017-11-27T08:34:22.822Z,164
2017-11-27T08:35:03.350Z,172
2017-11-27T08:35:44.731Z,172
2017-11-27T08:36:24.605Z,172
2017-11-27T08:37:04.975Z,176
2017-11-27T08:37:45.413Z,180
2017-11-27T08:38:26.022Z,184
2017-11-27T08:39:06.290Z,184
2017-11-27T08:39:46.723Z,176
2017-11-27T08:40:27.117Z,172
2017-11-27T08:41:07.537Z,168
2017-11-27T08:41:47.922Z,168
2017-11-27T08:42:28.349Z,172
2017-11-27T08:43:08.925Z,164
2017-11-27T08:43:49.386Z,156
2017-11-27T08:44:29.800Z,156
2017-11-27T08:45:10.237Z,144
2017-11-27T08:45:50.647Z,140
2017-11-27T08:46:31.035Z,148
2017-11-27T08:47:11.443Z,144
2017-11-27T08:47:51.914Z,132
2017-11-27T08:48:32.334Z,132
2017-11-27T08:49:12.725Z,132
2017-11-27T08:49:53.213Z,132
2017-11-27T08:53:31.867Z,168
2017-11-27T08:54:12.365Z,164
2017-11-27T08:54:52.932Z,164
2017-11-27T08:55:33.288Z,160
2017-11-27T08:56:13.695Z,172
2017-11-27T08:56:54.096Z,176
2017-11-27T08:57:34.559Z,184
2017-11-27T08:58:17.041Z,192
2017-11-27T08:58:57.748Z,204
2017-11-27T08:59:38.179Z,208
2017-11-27T09:04:00.769Z,264
2017-11-27T09:11:58.107Z,280
2017-11-27T09:12:38.558Z,272
2017-11-27T09:13:19.264Z,260
2017-11-27T09:13:59.955Z,260
2017-11-27T09:14:40.436Z,252
2017-11-27T09:15:20.927Z,248
2017-11-27T09:16:01.442Z,248
2017-11-27T09:16:41.832Z,260
2017-11-27T09:17:22.265Z,264
2017-11-27T09:18:02.783Z,284
2017-11-27T09:18:44.263Z,292
2017-11-27T09:19:24.168Z,288
2017-11-27T09:20:04.629Z,284
2017-11-27T09:20:44.964Z,284
2017-11-27T09:21:28.034Z,280
2017-11-27T09:22:08.422Z,264
2017-11-27T09:22:49.103Z,264
2017-11-27T09:23:29.458Z,268
2017-11-27T09:24:09.964Z,272
2017-11-27T09:24:50.469Z,280
2017-11-27T09:25:30.849Z,268
2017-11-27T09:26:11.294Z,256
2017-11-27T09:26:51.870Z,252
2017-11-27T09:30:29.315Z,296
2017-11-27T09:31:10.777Z,308
2017-11-27T09:31:51.329Z,304
2017-11-27T09:32:32.014Z,312
2017-11-27T09:33:16.344Z,332
2017-11-27T09:33:56.909Z,360
2017-11-27T09:36:13.226Z,348
2017-11-27T09:36:54.107Z,332
2017-11-27T09:37:35.297Z,332
2017-11-27T09:38:15.420Z,320
2017-11-27T09:38:56.456Z,316
2017-11-27T09:39:36.510Z,320
2017-11-27T09:40:16.963Z,320
2017-11-27T09:40:57.463Z,316
2017-11-27T09:41:37.888Z,328
2017-11-27T09:42:18.674Z,328
2017-11-27T09:42:59.231Z,332
2017-11-27T09:43:40.716Z,328
2017-11-27T09:44:21.237Z,324
2017-11-27T09:45:01.738Z,324
2017-11-27T09:45:42.140Z,328
2017-11-27T09:46:22.572Z,332
2017-11-27T09:47:02.946Z,336
2017-11-27T09:47:43.542Z,344
2017-11-27T09:48:23.928Z,336
2017-11-27T09:49:04.368Z,336
2017-11-27T09:49:44.860Z,348
2017-11-27T09:50:25.506Z,356
2017-11-27T09:51:05.973Z,348
2017-11-27T09:51:46.388Z,352
2017-11-27T09:52:26.997Z,348
2017-11-27T09:53:07.666Z,328
2017-11-27T09:53:48.120Z,300
2017-11-27T09:54:28.483Z,280
2017-11-27T09:55:08.866Z,276
2017-11-27T09:55:49.511Z,292
2017-11-27T09:56:29.953Z,320
2017-11-27T09:57:10.251Z,348
2017-11-27T09:57:50.692Z,340
2017-11-27T09:58:31.250Z,344
2017-11-27T09:59:11.690Z,372
2017-11-27T09:59:52.009Z,368
2017-11-27T10:00:32.545Z,392
2017-11-27T10:01:12.957Z,372
2017-11-27T10:01:53.422Z,340
2017-11-27T10:02:33.867Z,332
2017-11-27T10:42:03.309Z,304
2017-11-27T10:45:26.588Z,232
2017-11-27T10:46:07.591Z,276
2017-11-27T10:46:51.256Z,256
2017-11-27T10:47:32.852Z,228
2017-11-27T10:48:15.016Z,236
2017-11-27T10:48:55.300Z,228
2017-11-27T10:49:36.141Z,228
2017-11-27T10:50:18.065Z,208
2017-11-27T10:50:58.285Z,204
2017-11-27T10:51:39.970Z,232
2017-11-27T10:52:20.277Z,220
2017-11-27T10:53:02.169Z,216
2017-11-27T10:53:44.173Z,216
2017-11-27T10:54:39.560Z,204
2017-11-27T10:55:20.113Z,192
2017-11-27T10:56:02.673Z,208
2017-11-27T10:56:49.603Z,212
2017-11-27T10:59:02.094Z,200
2017-11-27T11:02:03.944Z,196
2017-11-27T11:05:32.507Z,216
2017-11-27T11:06:41.290Z,236
2017-11-27T11:07:47.382Z,256
2017-11-27T11:08:40.233Z,248
2017-11-27T11:09:24.670Z,248
2017-11-27T11:13:24.401Z,256
2017-11-27T11:14:02.331Z,248
2017-11-27T11:14:43.020Z,264
2017-11-27T11:15:23.355Z,284
2017-11-27T11:16:03.890Z,268
2017-11-27T11:16:46.999Z,272
2017-11-27T11:17:27.629Z,248
2017-11-27T11:18:24.675Z,260
2017-11-27T11:19:06.246Z,248
2017-11-27T11:19:46.706Z,248
2017-11-27T11:20:27.143Z,240
2017-11-27T11:21:07.650Z,272
2017-11-27T11:21:48.418Z,280
2017-11-27T11:22:28.999Z,272
2017-11-27T11:23:09.559Z,276
2017-11-27T11:23:49.998Z,260
2017-11-27T11:24:31.084Z,232
2017-11-27T11:25:11.618Z,240
2017-11-27T11:25:52.071Z,240
2017-11-27T11:26:32.807Z,224
2017-11-27T11:27:13.206Z,252
2017-11-27T11:27:58.109Z,244
2017-11-27T11:28:37.865Z,252
2017-11-27T11:29:18.892Z,252
2017-11-27T11:30:02.283Z,252
2017-11-27T11:30:43.696Z,252
2017-11-27T11:31:24.981Z,264
2017-11-27T11:32:11.636Z,252
2017-11-27T11:32:52.057Z,252
2017-11-27T11:33:32.772Z,244
2017-11-27T11:36:07.371Z,280
2017-11-27T11:36:44.725Z,292
2017-11-27T11:37:26.311Z,292
2017-11-27T11:38:06.681Z,300
2017-11-27T11:38:47.605Z,296
2017-11-27T11:39:28.702Z,292
2017-11-27T11:40:11.015Z,296
2017-11-27T11:40:51.139Z,296
2017-11-27T11:41:32.444Z,296
2017-11-27T11:42:13.004Z,296
2017-11-27T11:42:54.451Z,296
2017-11-27T11:43:35.173Z,296
2017-11-27T11:44:16.065Z,272
2017-11-27T11:44:57.387Z,276
2017-11-27T11:45:38.229Z,272
2017-11-27T11:46:20.566Z,272
2017-11-27T11:47:02.217Z,268
2017-11-27T11:47:43.352Z,276
2017-11-27T11:48:26.010Z,296
2017-11-27T11:49:06.103Z,308
2017-11-27T11:49:48.236Z,316
2017-11-27T11:50:29.659Z,308
2017-11-27T11:51:10.618Z,312
2017-11-27T11:51:51.533Z,304
2017-11-27T11:52:33.076Z,308
2017-11-27T11:53:15.508Z,304
2017-11-27T11:53:56.514Z,292
2017-11-27T11:54:38.007Z,288
2017-11-27T11:55:18.151Z,280
2017-11-27T11:55:58.995Z,272
2017-11-27T11:56:39.996Z,264
2017-11-27T11:57:21.916Z,260
2017-11-27T11:58:02.491Z,260
2017-11-27T11:58:44.085Z,260
2017-11-27T11:59:24.542Z,260
2017-11-27T12:00:06.511Z,252
2017-11-27T12:00:46.530Z,248
2017-11-27T12:01:28.561Z,248
2017-11-27T12:02:10.021Z,248